sensor_id;sensor_type;location;lat;lon;timestamp;P1;durP1;ratioP1;P2;durP2;ratioP2
67456;SDS011;54319;52.038;4.640;2023-11-21T00:01:02;19.55;;;9.02;;
67456;SDS011;54319;52.038;4.640;2023-11-21T00:03:29;17.52;;;7.88;;
67456;SDS011;54319;52.038;4.640;2023-11-21T00:05:56;23.33;;;9.45;;
67456;SDS011;54319;52.038;4.640;2023-11-21T00:08:24;18.17;;;7.57;;
67456;SDS011;54319;52.038;4.640;2023-11-21T00:10:51;17.63;;;8.48;;
67456;SDS011;54319;52.038;4.640;2023-11-21T00:13:19;20.40;;;8.13;;
67456;SDS011;54319;52.038;4.640;2023-11-21T00:15:46;16.23;;;8.52;;
67456;SDS011;54319;52.038;4.640;2023-11-21T00:18:13;16.77;;;7.50;;
67456;SDS011;54319;52.038;4.640;2023-11-21T00:20:41;16.38;;;8.10;;
67456;SDS011;54319;52.038;4.640;2023-11-21T00:23:08;15.75;;;7.38;;
67456;SDS011;54319;52.038;4.640;2023-11-21T00:25:36;14.50;;;7.50;;
67456;SDS011;54319;52.038;4.640;2023-11-21T00:28:03;18.98;;;7.63;;
67456;SDS011;54319;52.038;4.640;2023-11-21T00:30:30;16.25;;;8.07;;
67456;SDS011;54319;52.038;4.640;2023-11-21T00:32:58;19.15;;;8.02;;
67456;SDS011;54319;52.038;4.640;2023-11-21T00:35:27;19.20;;;7.78;;
67456;SDS011;54319;52.038;4.640;2023-11-21T00:37:53;21.05;;;7.68;;
67456;SDS011;54319;52.038;4.640;2023-11-21T00:40:20;18.33;;;7.30;;
67456;SDS011;54319;52.038;4.640;2023-11-21T00:42:48;24.85;;;8.07;;
67456;SDS011;54319;52.038;4.640;2023-11-21T00:45:15;15.15;;;7.28;;
67456;SDS011;54319;52.038;4.640;2023-11-21T00:47:42;17.10;;;6.87;;
67456;SDS011;54319;52.038;4.640;2023-11-21T00:50:08;16.10;;;6.82;;
67456;SDS011;54319;52.038;4.640;2023-11-21T00:52:35;15.77;;;7.53;;
67456;SDS011;54319;52.038;4.640;2023-11-21T00:55:02;13.73;;;6.70;;
67456;SDS011;54319;52.038;4.640;2023-11-21T00:57:29;17.63;;;7.75;;
67456;SDS011;54319;52.038;4.640;2023-11-21T00:59:59;19.52;;;7.30;;
67456;SDS011;54319;52.038;4.640;2023-11-21T01:02:25;11.95;;;6.57;;
67456;SDS011;54319;52.038;4.640;2023-11-21T01:04:58;21.02;;;7.55;;
67456;SDS011;54319;52.038;4.640;2023-11-21T01:07:25;15.38;;;7.22;;
67456;SDS011;54319;52.038;4.640;2023-11-21T01:09:54;14.40;;;7.40;;
67456;SDS011;54319;52.038;4.640;2023-11-21T01:12:21;14.18;;;7.18;;
67456;SDS011;54319;52.038;4.640;2023-11-21T01:14:50;18.23;;;7.15;;
67456;SDS011;54319;52.038;4.640;2023-11-21T01:17:18;16.33;;;7.78;;
67456;SDS011;54319;52.038;4.640;2023-11-21T01:19:46;20.65;;;7.25;;
67456;SDS011;54319;52.038;4.640;2023-11-21T01:22:13;20.83;;;7.13;;
67456;SDS011;54319;52.038;4.640;2023-11-21T01:24:41;16.08;;;6.78;;
67456;SDS011;54319;52.038;4.640;2023-11-21T01:27:08;18.20;;;6.93;;
67456;SDS011;54319;52.038;4.640;2023-11-21T01:29:35;16.77;;;6.78;;
67456;SDS011;54319;52.038;4.640;2023-11-21T01:32:02;15.27;;;6.90;;
67456;SDS011;54319;52.038;4.640;2023-11-21T01:34:30;16.27;;;6.55;;
67456;SDS011;54319;52.038;4.640;2023-11-21T01:36:57;22.00;;;6.70;;
67456;SDS011;54319;52.038;4.640;2023-11-21T01:39:24;15.27;;;6.85;;
67456;SDS011;54319;52.038;4.640;2023-11-21T01:41:51;16.23;;;7.03;;
67456;SDS011;54319;52.038;4.640;2023-11-21T01:44:18;21.33;;;7.45;;
67456;SDS011;54319;52.038;4.640;2023-11-21T01:46:45;17.47;;;7.10;;
67456;SDS011;54319;52.038;4.640;2023-11-21T01:49:13;19.30;;;7.35;;
67456;SDS011;54319;52.038;4.640;2023-11-21T01:51:41;19.35;;;7.30;;
67456;SDS011;54319;52.038;4.640;2023-11-21T01:54:10;15.23;;;6.25;;
67456;SDS011;54319;52.038;4.640;2023-11-21T01:56:37;16.33;;;6.72;;
67456;SDS011;54319;52.038;4.640;2023-11-21T01:59:04;21.63;;;7.03;;
67456;SDS011;54319;52.038;4.640;2023-11-21T02:01:32;18.40;;;6.88;;
67456;SDS011;54319;52.038;4.640;2023-11-21T02:03:59;14.32;;;6.72;;
67456;SDS011;54319;52.038;4.640;2023-11-21T02:06:26;19.80;;;6.82;;
67456;SDS011;54319;52.038;4.640;2023-11-21T02:08:57;17.00;;;6.70;;
67456;SDS011;54319;52.038;4.640;2023-11-21T02:11:24;17.27;;;7.60;;
67456;SDS011;54319;52.038;4.640;2023-11-21T02:16:19;17.20;;;7.60;;
67456;SDS011;54319;52.038;4.640;2023-11-21T02:18:46;19.13;;;7.63;;
67456;SDS011;54319;52.038;4.640;2023-11-21T02:21:13;21.75;;;7.80;;
67456;SDS011;54319;52.038;4.640;2023-11-21T02:23:43;13.13;;;7.82;;
67456;SDS011;54319;52.038;4.640;2023-11-21T02:26:11;22.35;;;8.68;;
67456;SDS011;54319;52.038;4.640;2023-11-21T02:28:39;23.98;;;8.43;;
67456;SDS011;54319;52.038;4.640;2023-11-21T02:31:06;23.05;;;8.75;;
67456;SDS011;54319;52.038;4.640;2023-11-21T02:33:32;23.55;;;9.15;;
67456;SDS011;54319;52.038;4.640;2023-11-21T02:35:59;19.55;;;8.50;;
67456;SDS011;54319;52.038;4.640;2023-11-21T02:38:26;25.15;;;9.07;;
67456;SDS011;54319;52.038;4.640;2023-11-21T02:40:54;22.97;;;8.97;;
67456;SDS011;54319;52.038;4.640;2023-11-21T02:43:21;25.40;;;8.88;;
67456;SDS011;54319;52.038;4.640;2023-11-21T02:45:48;23.35;;;8.05;;
67456;SDS011;54319;52.038;4.640;2023-11-21T02:48:15;20.45;;;9.05;;
67456;SDS011;54319;52.038;4.640;2023-11-21T02:50:42;22.17;;;7.70;;
67456;SDS011;54319;52.038;4.640;2023-11-21T02:53:09;18.58;;;8.07;;
67456;SDS011;54319;52.038;4.640;2023-11-21T02:55:35;22.75;;;7.65;;
67456;SDS011;54319;52.038;4.640;2023-11-21T02:58:04;16.77;;;7.30;;
67456;SDS011;54319;52.038;4.640;2023-11-21T03:00:31;18.98;;;7.50;;
67456;SDS011;54319;52.038;4.640;2023-11-21T03:02:57;21.33;;;8.48;;
67456;SDS011;54319;52.038;4.640;2023-11-21T03:05:24;14.77;;;7.82;;
67456;SDS011;54319;52.038;4.640;2023-11-21T03:07:51;19.52;;;7.70;;
67456;SDS011;54319;52.038;4.640;2023-11-21T03:10:17;21.35;;;7.80;;
67456;SDS011;54319;52.038;4.640;2023-11-21T03:12:46;14.10;;;6.95;;
67456;SDS011;54319;52.038;4.640;2023-11-21T03:15:14;18.15;;;7.95;;
67456;SDS011;54319;52.038;4.640;2023-11-21T03:17:41;14.02;;;7.40;;
67456;SDS011;54319;52.038;4.640;2023-11-21T03:20:08;15.93;;;7.25;;
67456;SDS011;54319;52.038;4.640;2023-11-21T03:22:36;18.65;;;7.13;;
67456;SDS011;54319;52.038;4.640;2023-11-21T03:25:03;16.67;;;7.03;;
67456;SDS011;54319;52.038;4.640;2023-11-21T03:27:31;19.90;;;7.65;;
67456;SDS011;54319;52.038;4.640;2023-11-21T03:29:58;13.88;;;7.15;;
67456;SDS011;54319;52.038;4.640;2023-11-21T03:32:27;24.58;;;7.25;;
67456;SDS011;54319;52.038;4.640;2023-11-21T03:34:54;14.95;;;6.70;;
67456;SDS011;54319;52.038;4.640;2023-11-21T03:37:22;19.55;;;7.05;;
67456;SDS011;54319;52.038;4.640;2023-11-21T03:39:49;20.05;;;7.47;;
67456;SDS011;54319;52.038;4.640;2023-11-21T03:42:17;16.55;;;6.53;;
67456;SDS011;54319;52.038;4.640;2023-11-21T03:44:43;15.57;;;6.97;;
67456;SDS011;54319;52.038;4.640;2023-11-21T03:47:10;15.70;;;6.95;;
67456;SDS011;54319;52.038;4.640;2023-11-21T03:49:38;17.70;;;7.60;;
67456;SDS011;54319;52.038;4.640;2023-11-21T03:52:05;14.43;;;7.30;;
67456;SDS011;54319;52.038;4.640;2023-11-21T03:54:34;17.73;;;6.47;;
67456;SDS011;54319;52.038;4.640;2023-11-21T03:57:01;17.00;;;6.95;;
67456;SDS011;54319;52.038;4.640;2023-11-21T03:59:27;17.80;;;7.20;;
67456;SDS011;54319;52.038;4.640;2023-11-21T04:01:54;15.07;;;6.38;;
67456;SDS011;54319;52.038;4.640;2023-11-21T04:04:24;16.90;;;6.30;;
67456;SDS011;54319;52.038;4.640;2023-11-21T04:06:52;16.75;;;6.60;;
67456;SDS011;54319;52.038;4.640;2023-11-21T04:09:18;14.30;;;6.50;;
67456;SDS011;54319;52.038;4.640;2023-11-21T04:11:45;16.93;;;6.43;;
67456;SDS011;54319;52.038;4.640;2023-11-21T04:14:12;18.60;;;6.87;;
67456;SDS011;54319;52.038;4.640;2023-11-21T04:16:39;15.20;;;6.40;;
67456;SDS011;54319;52.038;4.640;2023-11-21T04:19:07;18.73;;;6.80;;
67456;SDS011;54319;52.038;4.640;2023-11-21T04:21:34;18.83;;;7.38;;
67456;SDS011;54319;52.038;4.640;2023-11-21T04:24:02;17.80;;;7.07;;
67456;SDS011;54319;52.038;4.640;2023-11-21T04:26:31;15.23;;;6.47;;
67456;SDS011;54319;52.038;4.640;2023-11-21T04:28:58;20.10;;;6.70;;
67456;SDS011;54319;52.038;4.640;2023-11-21T04:31:24;15.83;;;6.63;;
67456;SDS011;54319;52.038;4.640;2023-11-21T04:33:51;17.88;;;6.65;;
67456;SDS011;54319;52.038;4.640;2023-11-21T04:36:18;17.03;;;6.10;;
67456;SDS011;54319;52.038;4.640;2023-11-21T04:41:13;16.83;;;7.13;;
67456;SDS011;54319;52.038;4.640;2023-11-21T04:43:41;13.27;;;6.63;;
67456;SDS011;54319;52.038;4.640;2023-11-21T04:46:08;16.33;;;7.07;;
67456;SDS011;54319;52.038;4.640;2023-11-21T04:48:35;18.30;;;6.70;;
67456;SDS011;54319;52.038;4.640;2023-11-21T04:51:02;16.35;;;6.78;;
67456;SDS011;54319;52.038;4.640;2023-11-21T04:53:30;12.68;;;6.07;;
67456;SDS011;54319;52.038;4.640;2023-11-21T04:55:57;17.48;;;6.85;;
67456;SDS011;54319;52.038;4.640;2023-11-21T04:58:25;19.65;;;7.40;;
67456;SDS011;54319;52.038;4.640;2023-11-21T05:00:52;21.27;;;7.75;;
67456;SDS011;54319;52.038;4.640;2023-11-21T05:03:18;19.80;;;8.20;;
67456;SDS011;54319;52.038;4.640;2023-11-21T05:05:45;22.48;;;7.38;;
67456;SDS011;54319;52.038;4.640;2023-11-21T05:08:12;18.42;;;7.45;;
67456;SDS011;54319;52.038;4.640;2023-11-21T05:10:39;18.67;;;7.93;;
67456;SDS011;54319;52.038;4.640;2023-11-21T05:13:05;14.98;;;7.93;;
67456;SDS011;54319;52.038;4.640;2023-11-21T05:15:36;17.05;;;7.10;;
67456;SDS011;54319;52.038;4.640;2023-11-21T05:18:04;13.40;;;7.13;;
67456;SDS011;54319;52.038;4.640;2023-11-21T05:20:31;22.52;;;7.57;;
67456;SDS011;54319;52.038;4.640;2023-11-21T05:22:58;17.85;;;7.13;;
67456;SDS011;54319;52.038;4.640;2023-11-21T05:25:27;10.75;;;6.10;;
67456;SDS011;54319;52.038;4.640;2023-11-21T05:27:54;20.27;;;7.18;;
67456;SDS011;54319;52.038;4.640;2023-11-21T05:30:21;14.48;;;7.20;;
67456;SDS011;54319;52.038;4.640;2023-11-21T05:32:49;14.90;;;6.50;;
67456;SDS011;54319;52.038;4.640;2023-11-21T05:35:16;17.05;;;6.93;;
67456;SDS011;54319;52.038;4.640;2023-11-21T05:37:43;20.97;;;7.70;;
67456;SDS011;54319;52.038;4.640;2023-11-21T05:40:09;14.52;;;7.22;;
67456;SDS011;54319;52.038;4.640;2023-11-21T05:42:36;16.20;;;6.50;;
67456;SDS011;54319;52.038;4.640;2023-11-21T05:45:04;14.07;;;6.45;;
67456;SDS011;54319;52.038;4.640;2023-11-21T05:47:35;13.70;;;7.15;;
67456;SDS011;54319;52.038;4.640;2023-11-21T05:50:05;11.63;;;6.28;;
67456;SDS011;54319;52.038;4.640;2023-11-21T05:52:37;12.40;;;6.28;;
67456;SDS011;54319;52.038;4.640;2023-11-21T05:55:06;12.23;;;5.93;;
67456;SDS011;54319;52.038;4.640;2023-11-21T05:57:33;15.27;;;6.68;;
67456;SDS011;54319;52.038;4.640;2023-11-21T06:00:02;10.13;;;5.80;;
67456;SDS011;54319;52.038;4.640;2023-11-21T06:02:36;10.10;;;5.72;;
67456;SDS011;54319;52.038;4.640;2023-11-21T06:05:05;11.18;;;6.22;;
67456;SDS011;54319;52.038;4.640;2023-11-21T06:07:33;15.52;;;6.80;;
67456;SDS011;54319;52.038;4.640;2023-11-21T06:10:00;13.65;;;5.85;;
67456;SDS011;54319;52.038;4.640;2023-11-21T06:12:31;10.88;;;6.15;;
67456;SDS011;54319;52.038;4.640;2023-11-21T06:15:01;9.95;;;5.97;;
67456;SDS011;54319;52.038;4.640;2023-11-21T06:17:29;12.13;;;5.90;;
67456;SDS011;54319;52.038;4.640;2023-11-21T06:19:55;11.32;;;6.18;;
67456;SDS011;54319;52.038;4.640;2023-11-21T06:22:23;12.45;;;6.10;;
67456;SDS011;54319;52.038;4.640;2023-11-21T06:24:50;11.75;;;5.57;;
67456;SDS011;54319;52.038;4.640;2023-11-21T06:27:17;11.98;;;5.60;;
67456;SDS011;54319;52.038;4.640;2023-11-21T06:29:43;20.77;;;5.85;;
67456;SDS011;54319;52.038;4.640;2023-11-21T06:32:10;11.32;;;5.72;;
67456;SDS011;54319;52.038;4.640;2023-11-21T06:34:36;10.25;;;5.38;;
67456;SDS011;54319;52.038;4.640;2023-11-21T06:37:03;10.38;;;5.65;;
67456;SDS011;54319;52.038;4.640;2023-11-21T06:41:59;7.00;;;4.75;;
67456;SDS011;54319;52.038;4.640;2023-11-21T06:46:53;15.93;;;4.93;;
67456;SDS011;54319;52.038;4.640;2023-11-21T06:49:19;9.48;;;4.95;;
67456;SDS011;54319;52.038;4.640;2023-11-21T06:51:46;9.25;;;5.03;;
67456;SDS011;54319;52.038;4.640;2023-11-21T06:54:13;13.43;;;5.97;;
67456;SDS011;54319;52.038;4.640;2023-11-21T06:56:41;10.38;;;5.53;;
67456;SDS011;54319;52.038;4.640;2023-11-21T06:59:07;9.23;;;5.22;;
67456;SDS011;54319;52.038;4.640;2023-11-21T07:01:35;12.95;;;6.10;;
67456;SDS011;54319;52.038;4.640;2023-11-21T07:04:04;9.50;;;4.95;;
67456;SDS011;54319;52.038;4.640;2023-11-21T07:08:58;7.82;;;4.65;;
67456;SDS011;54319;52.038;4.640;2023-11-21T07:11:26;9.90;;;4.72;;
67456;SDS011;54319;52.038;4.640;2023-11-21T07:13:54;12.40;;;4.50;;
67456;SDS011;54319;52.038;4.640;2023-11-21T07:16:21;11.68;;;4.43;;
67456;SDS011;54319;52.038;4.640;2023-11-21T07:18:51;10.43;;;4.72;;
67456;SDS011;54319;52.038;4.640;2023-11-21T07:21:20;12.63;;;4.55;;
67456;SDS011;54319;52.038;4.640;2023-11-21T07:23:47;14.45;;;4.70;;
67456;SDS011;54319;52.038;4.640;2023-11-21T07:26:15;10.38;;;4.43;;
67456;SDS011;54319;52.038;4.640;2023-11-21T07:28:42;9.75;;;4.32;;
67456;SDS011;54319;52.038;4.640;2023-11-21T07:31:10;15.52;;;5.00;;
67456;SDS011;54319;52.038;4.640;2023-11-21T07:33:37;14.02;;;4.88;;
67456;SDS011;54319;52.038;4.640;2023-11-21T07:36:04;14.57;;;4.72;;
67456;SDS011;54319;52.038;4.640;2023-11-21T07:38:32;10.57;;;4.20;;
67456;SDS011;54319;52.038;4.640;2023-11-21T07:40:59;14.20;;;4.87;;
67456;SDS011;54319;52.038;4.640;2023-11-21T07:43:26;11.33;;;4.50;;
67456;SDS011;54319;52.038;4.640;2023-11-21T07:45:59;9.27;;;3.88;;
67456;SDS011;54319;52.038;4.640;2023-11-21T07:48:29;11.57;;;4.40;;
67456;SDS011;54319;52.038;4.640;2023-11-21T07:50:56;16.48;;;5.93;;
67456;SDS011;54319;52.038;4.640;2023-11-21T07:53:23;13.82;;;5.18;;
67456;SDS011;54319;52.038;4.640;2023-11-21T07:55:50;11.45;;;4.70;;
67456;SDS011;54319;52.038;4.640;2023-11-21T07:58:17;10.15;;;4.28;;
67456;SDS011;54319;52.038;4.640;2023-11-21T08:00:43;12.10;;;4.97;;
67456;SDS011;54319;52.038;4.640;2023-11-21T08:03:10;14.13;;;5.45;;
67456;SDS011;54319;52.038;4.640;2023-11-21T08:05:38;12.27;;;5.63;;
67456;SDS011;54319;52.038;4.640;2023-11-21T08:08:05;10.40;;;4.90;;
67456;SDS011;54319;52.038;4.640;2023-11-21T08:10:32;14.93;;;5.25;;
67456;SDS011;54319;52.038;4.640;2023-11-21T08:13:00;12.50;;;5.85;;
67456;SDS011;54319;52.038;4.640;2023-11-21T08:15:27;12.00;;;5.20;;
67456;SDS011;54319;52.038;4.640;2023-11-21T08:17:54;14.98;;;5.50;;
67456;SDS011;54319;52.038;4.640;2023-11-21T08:20:20;13.60;;;5.30;;
67456;SDS011;54319;52.038;4.640;2023-11-21T08:22:49;9.75;;;4.63;;
67456;SDS011;54319;52.038;4.640;2023-11-21T08:25:16;13.52;;;4.80;;
67456;SDS011;54319;52.038;4.640;2023-11-21T08:27:45;13.27;;;4.93;;
67456;SDS011;54319;52.038;4.640;2023-11-21T08:30:12;15.30;;;4.83;;
67456;SDS011;54319;52.038;4.640;2023-11-21T08:32:39;12.50;;;5.07;;
67456;SDS011;54319;52.038;4.640;2023-11-21T08:35:07;13.07;;;5.65;;
67456;SDS011;54319;52.038;4.640;2023-11-21T08:37:34;12.32;;;5.82;;
67456;SDS011;54319;52.038;4.640;2023-11-21T08:40:04;16.67;;;5.05;;
67456;SDS011;54319;52.038;4.640;2023-11-21T08:42:34;19.77;;;7.57;;
67456;SDS011;54319;52.038;4.640;2023-11-21T08:45:01;15.20;;;5.85;;
67456;SDS011;54319;52.038;4.640;2023-11-21T08:47:28;12.60;;;5.07;;
67456;SDS011;54319;52.038;4.640;2023-11-21T08:49:56;9.85;;;4.97;;
67456;SDS011;54319;52.038;4.640;2023-11-21T08:52:23;16.90;;;5.38;;
67456;SDS011;54319;52.038;4.640;2023-11-21T08:54:50;12.63;;;5.60;;
67456;SDS011;54319;52.038;4.640;2023-11-21T08:57:22;11.48;;;5.45;;
67456;SDS011;54319;52.038;4.640;2023-11-21T08:59:50;14.15;;;6.25;;
67456;SDS011;54319;52.038;4.640;2023-11-21T09:02:20;17.25;;;6.38;;
67456;SDS011;54319;52.038;4.640;2023-11-21T09:04:49;14.95;;;6.68;;
67456;SDS011;54319;52.038;4.640;2023-11-21T09:07:17;14.00;;;6.57;;
67456;SDS011;54319;52.038;4.640;2023-11-21T09:09:46;14.60;;;6.95;;
67456;SDS011;54319;52.038;4.640;2023-11-21T09:12:12;14.60;;;6.30;;
67456;SDS011;54319;52.038;4.640;2023-11-21T09:14:40;12.40;;;6.77;;
67456;SDS011;54319;52.038;4.640;2023-11-21T09:17:07;15.57;;;6.50;;
67456;SDS011;54319;52.038;4.640;2023-11-21T09:19:36;14.00;;;7.20;;
67456;SDS011;54319;52.038;4.640;2023-11-21T09:22:05;15.75;;;7.20;;
67456;SDS011;54319;52.038;4.640;2023-11-21T09:24:32;15.35;;;7.05;;
67456;SDS011;54319;52.038;4.640;2023-11-21T09:27:00;12.90;;;6.80;;
67456;SDS011;54319;52.038;4.640;2023-11-21T09:29:27;17.35;;;7.35;;
67456;SDS011;54319;52.038;4.640;2023-11-21T09:31:56;16.63;;;6.97;;
67456;SDS011;54319;52.038;4.640;2023-11-21T09:34:24;15.10;;;6.65;;
67456;SDS011;54319;52.038;4.640;2023-11-21T09:36:51;16.77;;;7.30;;
67456;SDS011;54319;52.038;4.640;2023-11-21T09:39:18;15.85;;;6.50;;
67456;SDS011;54319;52.038;4.640;2023-11-21T09:41:46;14.68;;;6.30;;
67456;SDS011;54319;52.038;4.640;2023-11-21T09:44:17;13.88;;;6.05;;
67456;SDS011;54319;52.038;4.640;2023-11-21T09:46:48;12.95;;;5.45;;
67456;SDS011;54319;52.038;4.640;2023-11-21T09:49:16;12.90;;;5.32;;
67456;SDS011;54319;52.038;4.640;2023-11-21T09:51:50;10.45;;;4.90;;
67456;SDS011;54319;52.038;4.640;2023-11-21T09:54:21;13.50;;;5.70;;
67456;SDS011;54319;52.038;4.640;2023-11-21T09:56:48;14.55;;;5.40;;
67456;SDS011;54319;52.038;4.640;2023-11-21T09:59:16;10.57;;;4.95;;
67456;SDS011;54319;52.038;4.640;2023-11-21T10:01:43;10.95;;;4.85;;
67456;SDS011;54319;52.038;4.640;2023-11-21T10:04:11;12.45;;;4.68;;
67456;SDS011;54319;52.038;4.640;2023-11-21T10:06:40;11.73;;;5.30;;
67456;SDS011;54319;52.038;4.640;2023-11-21T10:09:08;9.80;;;5.18;;
67456;SDS011;54319;52.038;4.640;2023-11-21T10:11:37;10.88;;;5.00;;
67456;SDS011;54319;52.038;4.640;2023-11-21T10:14:07;8.23;;;4.60;;
67456;SDS011;54319;52.038;4.640;2023-11-21T10:16:37;10.13;;;4.80;;
67456;SDS011;54319;52.038;4.640;2023-11-21T10:19:05;10.75;;;4.82;;
67456;SDS011;54319;52.038;4.640;2023-11-21T10:21:36;9.57;;;4.38;;
67456;SDS011;54319;52.038;4.640;2023-11-21T10:24:06;10.70;;;5.32;;
67456;SDS011;54319;52.038;4.640;2023-11-21T10:26:34;10.27;;;4.72;;
67456;SDS011;54319;52.038;4.640;2023-11-21T10:29:02;12.60;;;5.47;;
67456;SDS011;54319;52.038;4.640;2023-11-21T10:31:29;11.48;;;5.43;;
67456;SDS011;54319;52.038;4.640;2023-11-21T10:33:57;9.63;;;5.28;;
67456;SDS011;54319;52.038;4.640;2023-11-21T10:36:37;10.43;;;5.47;;
67456;SDS011;54319;52.038;4.640;2023-11-21T10:39:05;10.20;;;5.13;;
67456;SDS011;54319;52.038;4.640;2023-11-21T10:41:32;8.55;;;4.57;;
67456;SDS011;54319;52.038;4.640;2023-11-21T10:44:00;10.95;;;4.35;;
67456;SDS011;54319;52.038;4.640;2023-11-21T10:46:29;10.88;;;5.03;;
67456;SDS011;54319;52.038;4.640;2023-11-21T10:48:56;9.45;;;4.50;;
67456;SDS011;54319;52.038;4.640;2023-11-21T10:51:25;12.70;;;5.65;;
67456;SDS011;54319;52.038;4.640;2023-11-21T10:53:51;12.70;;;5.88;;
67456;SDS011;54319;52.038;4.640;2023-11-21T10:56:21;14.75;;;5.57;;
67456;SDS011;54319;52.038;4.640;2023-11-21T10:58:49;15.32;;;6.10;;
67456;SDS011;54319;52.038;4.640;2023-11-21T11:01:17;12.52;;;6.25;;
67456;SDS011;54319;52.038;4.640;2023-11-21T11:03:46;13.07;;;5.80;;
67456;SDS011;54319;52.038;4.640;2023-11-21T11:06:14;15.23;;;6.20;;
67456;SDS011;54319;52.038;4.640;2023-11-21T11:08:42;12.65;;;6.20;;
67456;SDS011;54319;52.038;4.640;2023-11-21T11:11:10;12.27;;;6.50;;
67456;SDS011;54319;52.038;4.640;2023-11-21T11:13:40;13.32;;;6.55;;
67456;SDS011;54319;52.038;4.640;2023-11-21T11:16:10;13.45;;;6.50;;
67456;SDS011;54319;52.038;4.640;2023-11-21T11:18:42;11.27;;;6.07;;
67456;SDS011;54319;52.038;4.640;2023-11-21T11:23:45;14.65;;;6.93;;
67456;SDS011;54319;52.038;4.640;2023-11-21T11:26:31;14.25;;;6.47;;
67456;SDS011;54319;52.038;4.640;2023-11-21T11:29:08;12.75;;;6.40;;
67456;SDS011;54319;52.038;4.640;2023-11-21T11:31:53;13.38;;;7.05;;
67456;SDS011;54319;52.038;4.640;2023-11-21T11:34:29;12.68;;;6.68;;
67456;SDS011;54319;52.038;4.640;2023-11-21T11:37:00;13.93;;;6.72;;
67456;SDS011;54319;52.038;4.640;2023-11-21T11:39:29;14.48;;;6.60;;
67456;SDS011;54319;52.038;4.640;2023-11-21T11:41:58;11.43;;;5.95;;
67456;SDS011;54319;52.038;4.640;2023-11-21T11:44:48;10.68;;;5.88;;
67456;SDS011;54319;52.038;4.640;2023-11-21T11:47:19;10.27;;;5.63;;
67456;SDS011;54319;52.038;4.640;2023-11-21T11:49:57;13.60;;;6.25;;
67456;SDS011;54319;52.038;4.640;2023-11-21T11:52:32;11.38;;;5.75;;
67456;SDS011;54319;52.038;4.640;2023-11-21T11:55:00;10.73;;;5.65;;
67456;SDS011;54319;52.038;4.640;2023-11-21T12:00:13;10.75;;;4.60;;
67456;SDS011;54319;52.038;4.640;2023-11-21T12:05:12;9.10;;;5.05;;
67456;SDS011;54319;52.038;4.640;2023-11-21T12:07:46;7.57;;;4.80;;
67456;SDS011;54319;52.038;4.640;2023-11-21T12:10:16;11.00;;;5.20;;
67456;SDS011;54319;52.038;4.640;2023-11-21T12:12:47;11.07;;;5.35;;
67456;SDS011;54319;52.038;4.640;2023-11-21T12:15:16;12.00;;;5.88;;
67456;SDS011;54319;52.038;4.640;2023-11-21T12:17:44;9.45;;;5.20;;
67456;SDS011;54319;52.038;4.640;2023-11-21T12:20:11;10.70;;;5.43;;
67456;SDS011;54319;52.038;4.640;2023-11-21T12:22:43;10.00;;;5.60;;
67456;SDS011;54319;52.038;4.640;2023-11-21T12:25:12;11.38;;;5.95;;
67456;SDS011;54319;52.038;4.640;2023-11-21T12:27:41;10.90;;;5.78;;
67456;SDS011;54319;52.038;4.640;2023-11-21T12:30:09;10.40;;;5.78;;
67456;SDS011;54319;52.038;4.640;2023-11-21T12:32:40;11.95;;;6.28;;
67456;SDS011;54319;52.038;4.640;2023-11-21T12:35:07;11.55;;;5.78;;
67456;SDS011;54319;52.038;4.640;2023-11-21T12:37:36;13.30;;;5.78;;
67456;SDS011;54319;52.038;4.640;2023-11-21T12:40:04;12.23;;;6.07;;
67456;SDS011;54319;52.038;4.640;2023-11-21T12:42:32;11.13;;;5.90;;
67456;SDS011;54319;52.038;4.640;2023-11-21T12:45:07;10.95;;;5.78;;
67456;SDS011;54319;52.038;4.640;2023-11-21T12:47:40;11.45;;;6.18;;
67456;SDS011;54319;52.038;4.640;2023-11-21T12:50:08;13.13;;;5.75;;
67456;SDS011;54319;52.038;4.640;2023-11-21T12:52:41;10.32;;;5.82;;
67456;SDS011;54319;52.038;4.640;2023-11-21T12:55:12;10.48;;;5.70;;
67456;SDS011;54319;52.038;4.640;2023-11-21T12:57:41;8.80;;;5.28;;
67456;SDS011;54319;52.038;4.640;2023-11-21T13:00:09;9.98;;;5.28;;
67456;SDS011;54319;52.038;4.640;2023-11-21T13:02:40;9.00;;;5.50;;
67456;SDS011;54319;52.038;4.640;2023-11-21T13:05:09;8.52;;;5.32;;
67456;SDS011;54319;52.038;4.640;2023-11-21T13:07:46;11.07;;;5.45;;
67456;SDS011;54319;52.038;4.640;2023-11-21T13:10:16;13.05;;;5.88;;
67456;SDS011;54319;52.038;4.640;2023-11-21T13:12:43;9.38;;;5.82;;
67456;SDS011;54319;52.038;4.640;2023-11-21T13:15:13;8.82;;;5.45;;
67456;SDS011;54319;52.038;4.640;2023-11-21T13:17:44;11.18;;;5.55;;
67456;SDS011;54319;52.038;4.640;2023-11-21T13:20:11;8.30;;;5.55;;
67456;SDS011;54319;52.038;4.640;2023-11-21T13:22:44;9.20;;;5.40;;
67456;SDS011;54319;52.038;4.640;2023-11-21T13:25:12;11.63;;;5.90;;
67456;SDS011;54319;52.038;4.640;2023-11-21T13:27:39;9.00;;;5.82;;
67456;SDS011;54319;52.038;4.640;2023-11-21T13:30:08;10.30;;;6.03;;
67456;SDS011;54319;52.038;4.640;2023-11-21T13:32:36;10.68;;;6.20;;
67456;SDS011;54319;52.038;4.640;2023-11-21T13:35:04;11.23;;;5.88;;
67456;SDS011;54319;52.038;4.640;2023-11-21T13:37:39;11.10;;;5.80;;
67456;SDS011;54319;52.038;4.640;2023-11-21T13:40:07;10.40;;;5.82;;
67456;SDS011;54319;52.038;4.640;2023-11-21T13:42:40;10.85;;;5.85;;
67456;SDS011;54319;52.038;4.640;2023-11-21T13:47:34;11.65;;;5.68;;
67456;SDS011;54319;52.038;4.640;2023-11-21T13:50:05;13.13;;;6.00;;
67456;SDS011;54319;52.038;4.640;2023-11-21T13:52:42;10.77;;;6.10;;
67456;SDS011;54319;52.038;4.640;2023-11-21T13:55:10;11.82;;;6.43;;
67456;SDS011;54319;52.038;4.640;2023-11-21T13:57:40;13.57;;;6.65;;
67456;SDS011;54319;52.038;4.640;2023-11-21T14:00:10;12.57;;;6.28;;
67456;SDS011;54319;52.038;4.640;2023-11-21T14:02:58;16.15;;;7.10;;
67456;SDS011;54319;52.038;4.640;2023-11-21T14:05:27;13.10;;;7.43;;
67456;SDS011;54319;52.038;4.640;2023-11-21T14:07:56;11.57;;;6.85;;
67456;SDS011;54319;52.038;4.640;2023-11-21T14:10:28;11.98;;;7.13;;
67456;SDS011;54319;52.038;4.640;2023-11-21T14:13:02;13.23;;;6.88;;
67456;SDS011;54319;52.038;4.640;2023-11-21T14:15:29;11.40;;;6.90;;
67456;SDS011;54319;52.038;4.640;2023-11-21T14:17:58;13.65;;;6.63;;
67456;SDS011;54319;52.038;4.640;2023-11-21T14:20:29;12.35;;;7.03;;
67456;SDS011;54319;52.038;4.640;2023-11-21T14:22:56;11.68;;;7.05;;
67456;SDS011;54319;52.038;4.640;2023-11-21T14:25:22;11.73;;;6.78;;
67456;SDS011;54319;52.038;4.640;2023-11-21T14:27:50;12.40;;;6.70;;
67456;SDS011;54319;52.038;4.640;2023-11-21T14:30:17;14.10;;;7.43;;
67456;SDS011;54319;52.038;4.640;2023-11-21T14:32:47;13.18;;;7.30;;
67456;SDS011;54319;52.038;4.640;2023-11-21T14:35:14;12.95;;;7.13;;
67456;SDS011;54319;52.038;4.640;2023-11-21T14:37:43;15.65;;;7.15;;
67456;SDS011;54319;52.038;4.640;2023-11-21T14:40:11;13.63;;;7.35;;
67456;SDS011;54319;52.038;4.640;2023-11-21T14:42:41;13.60;;;7.63;;
67456;SDS011;54319;52.038;4.640;2023-11-21T14:45:08;11.85;;;7.30;;
67456;SDS011;54319;52.038;4.640;2023-11-21T14:47:38;11.88;;;7.10;;
67456;SDS011;54319;52.038;4.640;2023-11-21T14:50:09;12.13;;;7.30;;
67456;SDS011;54319;52.038;4.640;2023-11-21T14:53:06;12.77;;;7.40;;
67456;SDS011;54319;52.038;4.640;2023-11-21T14:55:33;11.80;;;7.18;;
67456;SDS011;54319;52.038;4.640;2023-11-21T14:58:15;12.77;;;7.07;;
67456;SDS011;54319;52.038;4.640;2023-11-21T15:00:51;10.02;;;6.65;;
67456;SDS011;54319;52.038;4.640;2023-11-21T15:03:23;11.57;;;7.30;;
67456;SDS011;54319;52.038;4.640;2023-11-21T15:06:08;12.70;;;7.20;;